sensor_id;sensor_type;location;lat;lon;timestamp;temperature;humidity
54960;DHT22;40860;51.710;8.736;2023-12-14T00:01:23;7.00;99.90
54960;DHT22;40860;51.710;8.736;2023-12-14T00:05:27;7.00;99.90
54960;DHT22;40860;51.710;8.736;2023-12-14T00:09:30;7.00;99.90
54960;DHT22;40860;51.710;8.736;2023-12-14T00:13:33;7.00;99.90
54960;DHT22;40860;51.710;8.736;2023-12-14T00:17:36;7.00;99.90
54960;DHT22;40860;51.710;8.736;2023-12-14T00:21:40;6.90;99.90
54960;DHT22;40860;51.710;8.736;2023-12-14T00:25:43;6.90;99.90
54960;DHT22;40860;51.710;8.736;2023-12-14T00:29:46;6.90;99.90
54960;DHT22;40860;51.710;8.736;2023-12-14T00:33:49;6.80;99.90
54960;DHT22;40860;51.710;8.736;2023-12-14T00:37:53;6.80;99.90
54960;DHT22;40860;51.710;8.736;2023-12-14T00:41:56;6.70;99.90
54960;DHT22;40860;51.710;8.736;2023-12-14T00:46:03;6.70;99.90
54960;DHT22;40860;51.710;8.736;2023-12-14T00:50:06;6.60;99.90
54960;DHT22;40860;51.710;8.736;2023-12-14T00:54:10;6.60;99.90
54960;DHT22;40860;51.710;8.736;2023-12-14T00:58:13;6.60;99.90
54960;DHT22;40860;51.710;8.736;2023-12-14T01:02:16;6.60;99.90
54960;DHT22;40860;51.710;8.736;2023-12-14T01:06:19;6.60;99.90
54960;DHT22;40860;51.710;8.736;2023-12-14T01:10:23;6.50;99.90
54960;DHT22;40860;51.710;8.736;2023-12-14T01:14:26;6.50;99.90
54960;DHT22;40860;51.710;8.736;2023-12-14T01:18:29;6.50;99.90
54960;DHT22;40860;51.710;8.736;2023-12-14T01:22:33;6.50;99.90
54960;DHT22;40860;51.710;8.736;2023-12-14T01:26:37;6.50;99.90
54960;DHT22;40860;51.710;8.736;2023-12-14T01:30:40;6.50;99.90
54960;DHT22;40860;51.710;8.736;2023-12-14T01:34:43;6.40;99.90
54960;DHT22;40860;51.710;8.736;2023-12-14T01:38:46;6.50;99.90
54960;DHT22;40860;51.710;8.736;2023-12-14T01:42:50;6.40;99.90
54960;DHT22;40860;51.710;8.736;2023-12-14T01:46:53;6.40;99.90
54960;DHT22;40860;51.710;8.736;2023-12-14T01:50:56;6.40;99.90
54960;DHT22;40860;51.710;8.736;2023-12-14T01:55:00;6.30;99.90
54960;DHT22;40860;51.710;8.736;2023-12-14T01:59:05;6.30;99.90
54960;DHT22;40860;51.710;8.736;2023-12-14T02:03:10;6.30;99.90
54960;DHT22;40860;51.710;8.736;2023-12-14T02:07:13;6.30;99.90
54960;DHT22;40860;51.710;8.736;2023-12-14T02:11:16;6.30;99.90
54960;DHT22;40860;51.710;8.736;2023-12-14T02:15:20;6.20;99.90
54960;DHT22;40860;51.710;8.736;2023-12-14T02:19:23;6.20;99.90
54960;DHT22;40860;51.710;8.736;2023-12-14T02:23:27;6.10;99.90
54960;DHT22;40860;51.710;8.736;2023-12-14T02:27:31;6.00;99.90
54960;DHT22;40860;51.710;8.736;2023-12-14T02:31:34;5.90;99.90
54960;DHT22;40860;51.710;8.736;2023-12-14T02:35:37;5.90;99.90
54960;DHT22;40860;51.710;8.736;2023-12-14T02:39:41;5.90;99.90
54960;DHT22;40860;51.710;8.736;2023-12-14T02:43:44;5.80;99.90
54960;DHT22;40860;51.710;8.736;2023-12-14T02:47:47;5.80;99.90
54960;DHT22;40860;51.710;8.736;2023-12-14T02:51:51;5.70;99.90
54960;DHT22;40860;51.710;8.736;2023-12-14T02:55:55;5.70;99.90
54960;DHT22;40860;51.710;8.736;2023-12-14T02:59:58;5.60;99.90
54960;DHT22;40860;51.710;8.736;2023-12-14T03:04:01;5.50;99.90
54960;DHT22;40860;51.710;8.736;2023-12-14T03:08:06;5.50;99.90
54960;DHT22;40860;51.710;8.736;2023-12-14T03:12:11;5.40;99.90
54960;DHT22;40860;51.710;8.736;2023-12-14T03:16:14;5.40;99.90
54960;DHT22;40860;51.710;8.736;2023-12-14T03:20:21;5.40;99.90
54960;DHT22;40860;51.710;8.736;2023-12-14T03:24:26;5.40;99.90
54960;DHT22;40860;51.710;8.736;2023-12-14T03:28:30;5.30;99.90
54960;DHT22;40860;51.710;8.736;2023-12-14T03:32:33;5.30;99.90
54960;DHT22;40860;51.710;8.736;2023-12-14T03:36:37;5.30;99.90
54960;DHT22;40860;51.710;8.736;2023-12-14T03:40:40;5.20;99.90
54960;DHT22;40860;51.710;8.736;2023-12-14T03:44:44;5.20;99.90
54960;DHT22;40860;51.710;8.736;2023-12-14T03:48:47;5.20;99.90
54960;DHT22;40860;51.710;8.736;2023-12-14T03:52:50;5.20;99.90
54960;DHT22;40860;51.710;8.736;2023-12-14T03:56:53;5.20;99.90
54960;DHT22;40860;51.710;8.736;2023-12-14T04:00:57;5.20;99.90
54960;DHT22;40860;51.710;8.736;2023-12-14T04:05:00;5.20;99.90
54960;DHT22;40860;51.710;8.736;2023-12-14T04:09:03;5.20;99.90
54960;DHT22;40860;51.710;8.736;2023-12-14T04:13:06;5.10;99.90
54960;DHT22;40860;51.710;8.736;2023-12-14T04:17:10;5.10;99.90
54960;DHT22;40860;51.710;8.736;2023-12-14T04:21:13;5.10;99.90
54960;DHT22;40860;51.710;8.736;2023-12-14T04:25:17;5.00;99.90
54960;DHT22;40860;51.710;8.736;2023-12-14T04:29:22;4.90;99.90
54960;DHT22;40860;51.710;8.736;2023-12-14T04:33:28;4.90;99.90
54960;DHT22;40860;51.710;8.736;2023-12-14T04:37:39;4.90;99.90
54960;DHT22;40860;51.710;8.736;2023-12-14T04:41:55;4.90;99.90
54960;DHT22;40860;51.710;8.736;2023-12-14T04:46:08;4.90;99.90
54960;DHT22;40860;51.710;8.736;2023-12-14T04:50:29;4.90;99.90
54960;DHT22;40860;51.710;8.736;2023-12-14T04:54:32;4.80;99.90
54960;DHT22;40860;51.710;8.736;2023-12-14T06:07:48;4.80;99.90
54960;DHT22;40860;51.710;8.736;2023-12-14T06:11:53;4.80;99.90
54960;DHT22;40860;51.710;8.736;2023-12-14T06:15:56;4.80;99.90
54960;DHT22;40860;51.710;8.736;2023-12-14T06:19:59;4.70;99.90
54960;DHT22;40860;51.710;8.736;2023-12-14T06:24:02;4.70;99.90
54960;DHT22;40860;51.710;8.736;2023-12-14T06:28:06;4.70;99.90
54960;DHT22;40860;51.710;8.736;2023-12-14T06:32:09;4.70;99.90
54960;DHT22;40860;51.710;8.736;2023-12-14T06:36:12;4.60;99.90
54960;DHT22;40860;51.710;8.736;2023-12-14T06:40:15;4.60;99.90
54960;DHT22;40860;51.710;8.736;2023-12-14T06:44:19;4.60;99.90
54960;DHT22;40860;51.710;8.736;2023-12-14T06:48:22;4.60;99.90
54960;DHT22;40860;51.710;8.736;2023-12-14T06:52:25;4.60;99.90
54960;DHT22;40860;51.710;8.736;2023-12-14T06:56:28;4.60;99.90
54960;DHT22;40860;51.710;8.736;2023-12-14T07:00:32;4.60;99.90
54960;DHT22;40860;51.710;8.736;2023-12-14T07:04:35;4.60;99.90
54960;DHT22;40860;51.710;8.736;2023-12-14T07:08:38;4.60;99.90
54960;DHT22;40860;51.710;8.736;2023-12-14T07:12:41;4.60;99.90
54960;DHT22;40860;51.710;8.736;2023-12-14T07:16:46;4.60;99.90
54960;DHT22;40860;51.710;8.736;2023-12-14T07:20:48;4.60;99.90
54960;DHT22;40860;51.710;8.736;2023-12-14T07:24:51;4.50;99.90
54960;DHT22;40860;51.710;8.736;2023-12-14T07:29:01;4.50;99.90
54960;DHT22;40860;51.710;8.736;2023-12-14T07:33:05;4.50;99.90
54960;DHT22;40860;51.710;8.736;2023-12-14T07:37:09;4.50;99.90
54960;DHT22;40860;51.710;8.736;2023-12-14T07:41:13;4.50;99.90
54960;DHT22;40860;51.710;8.736;2023-12-14T07:45:18;4.50;99.90
54960;DHT22;40860;51.710;8.736;2023-12-14T07:49:23;4.50;99.90
54960;DHT22;40860;51.710;8.736;2023-12-14T07:53:25;4.50;99.90
54960;DHT22;40860;51.710;8.736;2023-12-14T07:57:28;4.40;99.90
54960;DHT22;40860;51.710;8.736;2023-12-14T08:01:31;4.40;99.90
54960;DHT22;40860;51.710;8.736;2023-12-14T08:05:35;4.40;99.90
54960;DHT22;40860;51.710;8.736;2023-12-14T08:09:38;4.40;99.90
54960;DHT22;40860;51.710;8.736;2023-12-14T08:13:41;4.40;99.90
54960;DHT22;40860;51.710;8.736;2023-12-14T08:17:44;4.40;99.90
54960;DHT22;40860;51.710;8.736;2023-12-14T08:21:48;4.30;99.90
54960;DHT22;40860;51.710;8.736;2023-12-14T08:25:51;4.30;99.90
54960;DHT22;40860;51.710;8.736;2023-12-14T08:29:54;4.30;99.90
54960;DHT22;40860;51.710;8.736;2023-12-14T08:33:57;4.30;99.90
54960;DHT22;40860;51.710;8.736;2023-12-14T08:38:01;4.30;99.90
54960;DHT22;40860;51.710;8.736;2023-12-14T08:42:04;4.30;99.90
54960;DHT22;40860;51.710;8.736;2023-12-14T08:46:07;4.30;99.90
54960;DHT22;40860;51.710;8.736;2023-12-14T08:50:11;4.30;99.90
54960;DHT22;40860;51.710;8.736;2023-12-14T08:54:16;4.30;99.90
54960;DHT22;40860;51.710;8.736;2023-12-14T08:58:19;4.30;99.90
54960;DHT22;40860;51.710;8.736;2023-12-14T09:02:22;4.30;99.90
54960;DHT22;40860;51.710;8.736;2023-12-14T09:06:25;4.30;99.90
54960;DHT22;40860;51.710;8.736;2023-12-14T09:10:29;4.30;99.90
54960;DHT22;40860;51.710;8.736;2023-12-14T09:14:32;4.30;99.90
54960;DHT22;40860;51.710;8.736;2023-12-14T09:18:36;4.30;99.90
54960;DHT22;40860;51.710;8.736;2023-12-14T09:22:39;4.30;99.90
54960;DHT22;40860;51.710;8.736;2023-12-14T09:26:43;4.30;99.90
54960;DHT22;40860;51.710;8.736;2023-12-14T09:30:46;4.30;99.90
54960;DHT22;40860;51.710;8.736;2023-12-14T09:34:49;4.30;99.90
54960;DHT22;40860;51.710;8.736;2023-12-14T09:38:53;4.40;99.90
54960;DHT22;40860;51.710;8.736;2023-12-14T09:42:58;4.30;99.90
54960;DHT22;40860;51.710;8.736;2023-12-14T09:47:01;4.30;99.90
54960;DHT22;40860;51.710;8.736;2023-12-14T09:51:05;4.30;99.90
54960;DHT22;40860;51.710;8.736;2023-12-14T09:55:08;4.30;99.90
54960;DHT22;40860;51.710;8.736;2023-12-14T09:59:12;4.40;99.90
54960;DHT22;40860;51.710;8.736;2023-12-14T10:03:22;4.40;99.90
54960;DHT22;40860;51.710;8.736;2023-12-14T10:07:27;4.30;99.90
54960;DHT22;40860;51.710;8.736;2023-12-14T10:11:30;4.30;99.90
54960;DHT22;40860;51.710;8.736;2023-12-14T10:15:41;4.30;99.90
54960;DHT22;40860;51.710;8.736;2023-12-14T10:19:46;4.30;99.90
54960;DHT22;40860;51.710;8.736;2023-12-14T10:23:49;4.30;99.90
54960;DHT22;40860;51.710;8.736;2023-12-14T10:27:52;4.30;99.90
54960;DHT22;40860;51.710;8.736;2023-12-14T10:31:57;4.30;99.90
54960;DHT22;40860;51.710;8.736;2023-12-14T10:36:01;4.30;99.90
54960;DHT22;40860;51.710;8.736;2023-12-14T10:40:06;4.30;99.90
54960;DHT22;40860;51.710;8.736;2023-12-14T10:44:10;4.30;99.90
54960;DHT22;40860;51.710;8.736;2023-12-14T10:48:34;4.40;99.90
54960;DHT22;40860;51.710;8.736;2023-12-14T10:52:38;4.40;99.90
54960;DHT22;40860;51.710;8.736;2023-12-14T10:56:42;4.40;99.90
54960;DHT22;40860;51.710;8.736;2023-12-14T11:00:59;4.40;99.90
54960;DHT22;40860;51.710;8.736;2023-12-14T11:05:05;4.40;99.90
54960;DHT22;40860;51.710;8.736;2023-12-14T11:09:11;4.30;99.90
54960;DHT22;40860;51.710;8.736;2023-12-14T11:13:17;4.30;99.90
54960;DHT22;40860;51.710;8.736;2023-12-14T11:17:20;4.30;99.90
54960;DHT22;40860;51.710;8.736;2023-12-14T11:21:25;4.30;99.90
54960;DHT22;40860;51.710;8.736;2023-12-14T11:25:27;4.30;99.90
54960;DHT22;40860;51.710;8.736;2023-12-14T11:29:43;4.20;99.90
54960;DHT22;40860;51.710;8.736;2023-12-14T11:33:48;4.30;99.90
54960;DHT22;40860;51.710;8.736;2023-12-14T11:37:52;4.30;99.90
54960;DHT22;40860;51.710;8.736;2023-12-14T11:41:59;4.30;99.90
54960;DHT22;40860;51.710;8.736;2023-12-14T11:46:02;4.40;99.90
54960;DHT22;40860;51.710;8.736;2023-12-14T11:50:06;4.40;99.90
54960;DHT22;40860;51.710;8.736;2023-12-14T11:54:10;4.30;99.90
54960;DHT22;40860;51.710;8.736;2023-12-14T11:58:14;4.40;99.90
54960;DHT22;40860;51.710;8.736;2023-12-14T12:02:23;4.40;99.90
54960;DHT22;40860;51.710;8.736;2023-12-14T12:06:27;4.40;99.90
54960;DHT22;40860;51.710;8.736;2023-12-14T12:10:32;4.40;99.90
54960;DHT22;40860;51.710;8.736;2023-12-14T12:14:35;4.40;99.90
54960;DHT22;40860;51.710;8.736;2023-12-14T12:18:38;4.30;99.90
54960;DHT22;40860;51.710;8.736;2023-12-14T12:22:42;4.30;99.90
54960;DHT22;40860;51.710;8.736;2023-12-14T12:26:46;4.40;99.90
54960;DHT22;40860;51.710;8.736;2023-12-14T12:30:49;4.40;99.90
54960;DHT22;40860;51.710;8.736;2023-12-14T12:34:51;4.40;99.90
54960;DHT22;40860;51.710;8.736;2023-12-14T12:38:55;4.40;99.90
54960;DHT22;40860;51.710;8.736;2023-12-14T12:42:59;4.50;99.90
54960;DHT22;40860;51.710;8.736;2023-12-14T12:47:03;4.50;99.90
54960;DHT22;40860;51.710;8.736;2023-12-14T12:51:12;4.50;99.90
54960;DHT22;40860;51.710;8.736;2023-12-14T12:55:15;4.50;99.90
54960;DHT22;40860;51.710;8.736;2023-12-14T12:59:19;4.50;99.90
54960;DHT22;40860;51.710;8.736;2023-12-14T13:03:22;4.40;99.90
54960;DHT22;40860;51.710;8.736;2023-12-14T13:07:25;4.40;99.90
54960;DHT22;40860;51.710;8.736;2023-12-14T13:11:28;4.50;99.90
54960;DHT22;40860;51.710;8.736;2023-12-14T13:15:32;4.50;99.90
54960;DHT22;40860;51.710;8.736;2023-12-14T13:19:36;4.50;99.90
54960;DHT22;40860;51.710;8.736;2023-12-14T13:23:39;4.60;99.90
54960;DHT22;40860;51.710;8.736;2023-12-14T13:27:43;4.60;99.90
54960;DHT22;40860;51.710;8.736;2023-12-14T13:31:47;4.60;99.90
54960;DHT22;40860;51.710;8.736;2023-12-14T13:35:50;4.70;99.90
54960;DHT22;40860;51.710;8.736;2023-12-14T13:39:53;4.70;99.90
54960;DHT22;40860;51.710;8.736;2023-12-14T13:43:56;4.70;99.90
54960;DHT22;40860;51.710;8.736;2023-12-14T13:48:00;4.80;99.90
54960;DHT22;40860;51.710;8.736;2023-12-14T13:52:04;4.70;99.90
54960;DHT22;40860;51.710;8.736;2023-12-14T13:56:07;4.70;99.90
54960;DHT22;40860;51.710;8.736;2023-12-14T14:00:12;4.70;99.90
54960;DHT22;40860;51.710;8.736;2023-12-14T14:04:17;4.70;99.90
54960;DHT22;40860;51.710;8.736;2023-12-14T14:08:20;4.70;99.90
54960;DHT22;40860;51.710;8.736;2023-12-14T14:12:23;4.70;99.90
54960;DHT22;40860;51.710;8.736;2023-12-14T14:16:26;4.70;99.90
54960;DHT22;40860;51.710;8.736;2023-12-14T14:20:30;4.60;99.90
54960;DHT22;40860;51.710;8.736;2023-12-14T14:24:33;4.60;99.90
54960;DHT22;40860;51.710;8.736;2023-12-14T14:28:36;4.60;99.90
54960;DHT22;40860;51.710;8.736;2023-12-14T14:32:39;4.60;99.90
54960;DHT22;40860;51.710;8.736;2023-12-14T14:36:43;4.60;99.90
54960;DHT22;40860;51.710;8.736;2023-12-14T14:40:47;4.60;99.90
54960;DHT22;40860;51.710;8.736;2023-12-14T14:44:50;4.60;99.90
54960;DHT22;40860;51.710;8.736;2023-12-14T14:48:53;4.50;99.90
54960;DHT22;40860;51.710;8.736;2023-12-14T14:52:57;4.60;99.90
54960;DHT22;40860;51.710;8.736;2023-12-14T14:57:00;4.50;99.90
54960;DHT22;40860;51.710;8.736;2023-12-14T15:01:03;4.50;99.90
54960;DHT22;40860;51.710;8.736;2023-12-14T15:05:07;4.50;99.90
54960;DHT22;40860;51.710;8.736;2023-12-14T15:09:11;4.50;99.90
54960;DHT22;40860;51.710;8.736;2023-12-14T15:13:15;4.50;99.90
54960;DHT22;40860;51.710;8.736;2023-12-14T15:17:19;4.50;99.90
54960;DHT22;40860;51.710;8.736;2023-12-14T15:21:22;4.50;99.90
54960;DHT22;40860;51.710;8.736;2023-12-14T15:25:26;4.50;99.90
54960;DHT22;40860;51.710;8.736;2023-12-14T15:29:29;4.50;99.90
54960;DHT22;40860;51.710;8.736;2023-12-14T15:33:32;4.50;99.90
54960;DHT22;40860;51.710;8.736;2023-12-14T15:37:35;4.50;99.90
54960;DHT22;40860;51.710;8.736;2023-12-14T15:41:39;4.50;99.90
54960;DHT22;40860;51.710;8.736;2023-12-14T15:45:42;4.40;99.90
54960;DHT22;40860;51.710;8.736;2023-12-14T15:49:46;4.40;99.90
54960;DHT22;40860;51.710;8.736;2023-12-14T15:53:49;4.40;99.90
54960;DHT22;40860;51.710;8.736;2023-12-14T15:57:54;4.40;99.90
54960;DHT22;40860;51.710;8.736;2023-12-14T16:01:57;4.40;99.90
54960;DHT22;40860;51.710;8.736;2023-12-14T16:06:00;4.40;99.90
54960;DHT22;40860;51.710;8.736;2023-12-14T16:10:04;4.40;99.90
54960;DHT22;40860;51.710;8.736;2023-12-14T16:14:08;4.40;99.90
54960;DHT22;40860;51.710;8.736;2023-12-14T16:18:13;4.40;99.90
54960;DHT22;40860;51.710;8.736;2023-12-14T16:22:16;4.40;99.90
54960;DHT22;40860;51.710;8.736;2023-12-14T16:26:19;4.40;99.90
54960;DHT22;40860;51.710;8.736;2023-12-14T16:30:24;4.40;99.90
54960;DHT22;40860;51.710;8.736;2023-12-14T16:34:27;4.40;99.90
54960;DHT22;40860;51.710;8.736;2023-12-14T16:38:35;4.40;99.90
54960;DHT22;40860;51.710;8.736;2023-12-14T16:42:38;4.50;99.90
54960;DHT22;40860;51.710;8.736;2023-12-14T16:46:42;4.50;99.90
54960;DHT22;40860;51.710;8.736;2023-12-14T16:50:45;4.50;99.90
54960;DHT22;40860;51.710;8.736;2023-12-14T16:54:54;4.50;99.90
54960;DHT22;40860;51.710;8.736;2023-12-14T16:58:58;4.50;99.90
54960;DHT22;40860;51.710;8.736;2023-12-14T17:03:02;4.50;99.90
54960;DHT22;40860;51.710;8.736;2023-12-14T17:07:07;4.50;99.90
54960;DHT22;40860;51.710;8.736;2023-12-14T17:11:09;4.50;99.90
54960;DHT22;40860;51.710;8.736;2023-12-14T17:15:13;4.50;99.90
54960;DHT22;40860;51.710;8.736;2023-12-14T17:19:18;4.50;99.90
54960;DHT22;40860;51.710;8.736;2023-12-14T17:23:21;4.50;99.90
54960;DHT22;40860;51.710;8.736;2023-12-14T17:27:24;4.50;99.90
54960;DHT22;40860;51.710;8.736;2023-12-14T17:31:27;4.50;99.90
54960;DHT22;40860;51.710;8.736;2023-12-14T17:35:32;4.50;99.90
54960;DHT22;40860;51.710;8.736;2023-12-14T17:39:36;4.50;99.90
54960;DHT22;40860;51.710;8.736;2023-12-14T17:43:39;4.50;99.90
54960;DHT22;40860;51.710;8.736;2023-12-14T17:47:42;4.50;99.90
54960;DHT22;40860;51.710;8.736;2023-12-14T17:51:46;4.50;99.90
54960;DHT22;40860;51.710;8.736;2023-12-14T17:55:49;4.50;99.90
54960;DHT22;40860;51.710;8.736;2023-12-14T17:59:53;4.50;99.90
54960;DHT22;40860;51.710;8.736;2023-12-14T18:03:56;4.50;99.90
54960;DHT22;40860;51.710;8.736;2023-12-14T18:08:00;4.50;99.90
54960;DHT22;40860;51.710;8.736;2023-12-14T18:12:04;4.50;99.90
54960;DHT22;40860;51.710;8.736;2023-12-14T18:16:07;4.50;99.90
54960;DHT22;40860;51.710;8.736;2023-12-14T18:20:10;4.50;99.90
54960;DHT22;40860;51.710;8.736;2023-12-14T18:24:15;4.50;99.90
54960;DHT22;40860;51.710;8.736;2023-12-14T18:28:18;4.50;99.90
54960;DHT22;40860;51.710;8.736;2023-12-14T18:32:22;4.50;99.90
54960;DHT22;40860;51.710;8.736;2023-12-14T18:36:25;4.50;99.90
54960;DHT22;40860;51.710;8.736;2023-12-14T18:40:30;4.50;99.90
54960;DHT22;40860;51.710;8.736;2023-12-14T18:44:33;4.50;99.90
54960;DHT22;40860;51.710;8.736;2023-12-14T18:48:37;4.50;99.90
54960;DHT22;40860;51.710;8.736;2023-12-14T18:52:40;4.50;99.90
54960;DHT22;40860;51.710;8.736;2023-12-14T18:56:45;4.50;99.90
54960;DHT22;40860;51.710;8.736;2023-12-14T19:00:48;4.50;99.90
54960;DHT22;40860;51.710;8.736;2023-12-14T19:04:51;4.50;99.90
54960;DHT22;40860;51.710;8.736;2023-12-14T19:08:54;4.50;99.90
54960;DHT22;40860;51.710;8.736;2023-12-14T19:13:01;4.50;99.90
54960;DHT22;40860;51.710;8.736;2023-12-14T19:17:04;4.50;99.90
54960;DHT22;40860;51.710;8.736;2023-12-14T19:21:07;4.50;99.90
54960;DHT22;40860;51.710;8.736;2023-12-14T19:25:12;4.50;99.90
54960;DHT22;40860;51.710;8.736;2023-12-14T19:29:16;4.50;99.90
54960;DHT22;40860;51.710;8.736;2023-12-14T19:33:19;4.50;99.90
54960;DHT22;40860;51.710;8.736;2023-12-14T19:37:26;4.50;99.90
54960;DHT22;40860;51.710;8.736;2023-12-14T19:41:32;4.50;99.90
54960;DHT22;40860;51.710;8.736;2023-12-14T19:45:39;4.50;99.90
54960;DHT22;40860;51.710;8.736;2023-12-14T19:49:48;4.50;99.90
54960;DHT22;40860;51.710;8.736;2023-12-14T19:53:54;4.50;99.90
54960;DHT22;40860;51.710;8.736;2023-12-14T19:57:57;4.50;99.90
54960;DHT22;40860;51.710;8.736;2023-12-14T20:02:13;4.50;99.90
54960;DHT22;40860;51.710;8.736;2023-12-14T20:06:20;4.50;99.90
54960;DHT22;40860;51.710;8.736;2023-12-14T20:10:24;4.50;99.90
54960;DHT22;40860;51.710;8.736;2023-12-14T20:14:27;4.50;99.90
54960;DHT22;40860;51.710;8.736;2023-12-14T20:18:34;4.50;99.90
54960;DHT22;40860;51.710;8.736;2023-12-14T20:23:01;4.50;99.90
54960;DHT22;40860;51.710;8.736;2023-12-14T20:27:08;4.50;99.90
54960;DHT22;40860;51.710;8.736;2023-12-14T20:31:17;4.50;99.90
54960;DHT22;40860;51.710;8.736;2023-12-14T20:35:23;4.50;99.90
54960;DHT22;40860;51.710;8.736;2023-12-14T20:39:29;4.50;99.90
54960;DHT22;40860;51.710;8.736;2023-12-14T20:43:32;4.50;99.90
54960;DHT22;40860;51.710;8.736;2023-12-14T20:47:35;4.50;99.90
54960;DHT22;40860;51.710;8.736;2023-12-14T20:51:41;4.50;99.90
54960;DHT22;40860;51.710;8.736;2023-12-14T20:55:44;4.50;99.90
54960;DHT22;40860;51.710;8.736;2023-12-14T20:59:47;4.50;99.90
54960;DHT22;40860;51.710;8.736;2023-12-14T21:03:54;4.50;99.90
54960;DHT22;40860;51.710;8.736;2023-12-14T21:07:58;4.50;99.90
54960;DHT22;40860;51.710;8.736;2023-12-14T21:12:20;4.50;99.90
54960;DHT22;40860;51.710;8.736;2023-12-14T21:16:41;4.50;99.90
54960;DHT22;40860;51.710;8.736;2023-12-14T21:21:03;4.50;99.90
54960;DHT22;40860;51.710;8.736;2023-12-14T21:25:11;4.50;99.90
54960;DHT22;40860;51.710;8.736;2023-12-14T21:29:16;4.50;99.90
54960;DHT22;40860;51.710;8.736;2023-12-14T21:33:22;4.50;99.90
54960;DHT22;40860;51.710;8.736;2023-12-14T21:37:25;4.50;99.90
54960;DHT22;40860;51.710;8.736;2023-12-14T21:41:29;4.50;99.90
54960;DHT22;40860;51.710;8.736;2023-12-14T21:45:32;4.50;99.90
54960;DHT22;40860;51.710;8.736;2023-12-14T21:49:35;4.50;99.90
54960;DHT22;40860;51.710;8.736;2023-12-14T21:53:44;4.50;99.90
54960;DHT22;40860;51.710;8.736;2023-12-14T21:57:51;4.50;99.90
54960;DHT22;40860;51.710;8.736;2023-12-14T22:01:53;4.40;99.90
54960;DHT22;40860;51.710;8.736;2023-12-14T22:06:00;4.40;99.90
54960;DHT22;40860;51.710;8.736;2023-12-14T22:10:06;4.40;99.90
54960;DHT22;40860;51.710;8.736;2023-12-14T22:14:12;4.40;99.90
54960;DHT22;40860;51.710;8.736;2023-12-14T22:18:15;4.40;99.90
54960;DHT22;40860;51.710;8.736;2023-12-14T22:22:18;4.40;99.90
54960;DHT22;40860;51.710;8.736;2023-12-14T22:26:21;4.40;99.90
54960;DHT22;40860;51.710;8.736;2023-12-14T22:30:25;4.40;99.90
54960;DHT22;40860;51.710;8.736;2023-12-14T22:34:28;4.40;99.90
54960;DHT22;40860;51.710;8.736;2023-12-14T22:38:31;4.40;99.90
54960;DHT22;40860;51.710;8.736;2023-12-14T22:42:34;4.40;99.90
54960;DHT22;40860;51.710;8.736;2023-12-14T22:46:39;4.40;99.90
54960;DHT22;40860;51.710;8.736;2023-12-14T22:50:42;4.50;99.90
54960;DHT22;40860;51.710;8.736;2023-12-14T22:54:45;4.40;99.90
54960;DHT22;40860;51.710;8.736;2023-12-14T22:58:48;4.40;99.90
54960;DHT22;40860;51.710;8.736;2023-12-14T23:02:53;4.40;99.90
54960;DHT22;40860;51.710;8.736;2023-12-14T23:06:56;4.40;99.90
54960;DHT22;40860;51.710;8.736;2023-12-14T23:10:59;4.40;99.90
54960;DHT22;40860;51.710;8.736;2023-12-14T23:15:04;4.40;99.90
54960;DHT22;40860;51.710;8.736;2023-12-14T23:19:08;4.40;99.90
54960;DHT22;40860;51.710;8.736;2023-12-14T23:23:11;4.40;99.90
54960;DHT22;40860;51.710;8.736;2023-12-14T23:27:14;4.30;99.90
54960;DHT22;40860;51.710;8.736;2023-12-14T23:31:16;4.30;99.90
54960;DHT22;40860;51.710;8.736;2023-12-14T23:35:21;4.30;99.90
54960;DHT22;40860;51.710;8.736;2023-12-14T23:39:23;4.30;99.90
54960;DHT22;40860;51.710;8.736;2023-12-14T23:43:26;4.30;99.90
54960;DHT22;40860;51.710;8.736;2023-12-14T23:47:29;4.30;99.90
54960;DHT22;40860;51.710;8.736;2023-12-14T23:51:34;4.30;99.90
54960;DHT22;40860;51.710;8.736;2023-12-14T23:55:37;4.30;99.90
54960;DHT22;40860;51.710;8.736;2023-12-14T23:59:40;4.30;99.90
